createdAt,value
2023-02-01T00:01:10.424Z,7.90
2023-02-01T00:03:38.194Z,8.00
2023-02-01T00:06:05.960Z,6.80
2023-02-01T00:08:34.115Z,6.60
2023-02-01T00:11:03.751Z,5.90
2023-02-01T00:13:33.447Z,6.30
2023-02-01T00:16:22.175Z,6.20
2023-02-01T00:18:52.308Z,5.60
2023-02-01T00:21:21.484Z,5.30
2023-02-01T00:23:49.359Z,7.60
2023-02-01T00:26:19.522Z,5.70
2023-02-01T00:28:47.304Z,5.30
2023-02-01T00:31:15.976Z,5.60
2023-02-01T00:33:43.941Z,6.10
2023-02-01T00:36:11.889Z,6.10
2023-02-01T00:38:40.391Z,5.20
2023-02-01T00:41:12.913Z,7.00
2023-02-01T00:43:40.741Z,6.40
2023-02-01T00:46:09.092Z,6.00
2023-02-01T00:48:37.424Z,6.00
2023-02-01T00:51:07.496Z,8.50
2023-02-01T00:53:35.782Z,7.50
2023-02-01T00:56:04.536Z,5.90
2023-02-01T00:58:33.157Z,8.40
2023-02-01T01:01:01.686Z,7.80
2023-02-01T01:03:30.467Z,7.50
2023-02-01T01:05:58.532Z,7.70
2023-02-01T01:08:26.234Z,8.10
2023-02-01T01:10:54.062Z,9.30
2023-02-01T01:13:21.807Z,9.60
2023-02-01T01:15:49.693Z,8.10
2023-02-01T01:18:17.363Z,10.50
2023-02-01T01:20:45.082Z,9.70
2023-02-01T01:23:12.690Z,12.00
2023-02-01T01:25:40.722Z,9.60
2023-02-01T01:28:08.475Z,7.70
2023-02-01T01:30:36.490Z,6.20
2023-02-01T01:33:04.212Z,9.50
2023-02-01T01:35:32.741Z,9.40
2023-02-01T01:38:01.217Z,8.30
2023-02-01T01:40:30.033Z,9.10
2023-02-01T01:42:58.735Z,9.80
2023-02-01T01:45:28.013Z,10.10
2023-02-01T01:48:01.673Z,11.00
2023-02-01T01:50:34.835Z,6.40
2023-02-01T01:53:04.594Z,7.90
2023-02-01T01:55:35.022Z,7.10
2023-02-01T01:58:10.973Z,5.40
2023-02-01T02:00:39.423Z,8.20
2023-02-01T02:03:23.900Z,6.60
2023-02-01T02:05:53.316Z,9.90
2023-02-01T02:08:23.504Z,10.00
2023-02-01T02:11:00.775Z,6.50
2023-02-01T02:13:43.316Z,7.30
2023-02-01T02:16:17.132Z,6.90
2023-02-01T02:19:27.310Z,8.70
2023-02-01T02:22:13.233Z,7.90
2023-02-01T02:24:59.722Z,7.80
2023-02-01T02:27:39.785Z,9.60
2023-02-01T02:30:35.799Z,9.40
2023-02-01T02:33:20.089Z,8.50
2023-02-01T02:35:50.044Z,10.80
2023-02-01T02:38:58.431Z,10.10
2023-02-01T02:41:51.968Z,11.20
2023-02-01T02:44:56.417Z,10.70
2023-02-01T02:47:35.177Z,13.90
2023-02-01T02:50:47.903Z,11.60
2023-02-01T02:53:38.833Z,10.50
2023-02-01T02:56:27.662Z,9.50
2023-02-01T02:59:14.529Z,7.20
2023-02-01T03:02:02.021Z,8.70
2023-02-01T03:04:29.716Z,8.10
2023-02-01T03:06:57.427Z,10.70
2023-02-01T03:09:33.183Z,11.20
2023-02-01T03:12:23.886Z,10.10
2023-02-01T03:14:54.799Z,9.20
2023-02-01T03:17:29.798Z,11.90
2023-02-01T03:20:01.268Z,13.00
2023-02-01T03:22:32.749Z,12.00
2023-02-01T03:25:07.890Z,11.30
2023-02-01T03:27:41.386Z,10.90
2023-02-01T03:30:21.731Z,10.70
2023-02-01T03:33:01.115Z,10.50
2023-02-01T03:35:52.800Z,8.00
2023-02-01T03:38:29.003Z,11.20
2023-02-01T03:41:28.296Z,11.30
2023-02-01T03:44:15.628Z,11.00
2023-02-01T03:46:50.996Z,9.80
2023-02-01T03:49:53.323Z,10.20
2023-02-01T03:52:36.146Z,11.70
2023-02-01T03:55:06.677Z,10.30
2023-02-01T03:57:36.824Z,11.50
2023-02-01T04:00:18.945Z,8.20
2023-02-01T04:02:46.720Z,11.70
2023-02-01T04:05:14.663Z,13.50
2023-02-01T04:07:47.803Z,10.00
2023-02-01T04:10:17.999Z,10.90
2023-02-01T04:12:47.052Z,9.80
2023-02-01T04:15:14.803Z,9.10
2023-02-01T04:17:42.500Z,10.90
2023-02-01T04:20:10.995Z,11.60
2023-02-01T04:22:38.660Z,10.50
2023-02-01T04:25:07.315Z,11.70
2023-02-01T04:27:36.034Z,8.60
2023-02-01T04:30:10.592Z,11.30
2023-02-01T04:32:39.318Z,9.70
2023-02-01T04:35:07.873Z,9.20
2023-02-01T04:37:35.623Z,10.30
2023-02-01T04:40:04.717Z,9.60
2023-02-01T04:42:32.415Z,9.40
2023-02-01T04:45:00.136Z,11.20
2023-02-01T04:47:27.818Z,8.80
2023-02-01T04:49:55.770Z,8.30
2023-02-01T04:52:23.456Z,9.90
2023-02-01T04:54:51.132Z,10.50
2023-02-01T04:57:18.762Z,11.10
2023-02-01T04:59:46.482Z,9.20
2023-02-01T05:02:14.114Z,9.20
2023-02-01T05:04:41.795Z,9.90
2023-02-01T05:07:09.479Z,11.20
2023-02-01T05:09:37.314Z,12.00
2023-02-01T05:12:24.732Z,13.50
2023-02-01T05:14:52.394Z,11.90
2023-02-01T05:17:20.136Z,12.60
2023-02-01T05:19:47.793Z,12.80
2023-02-01T05:22:15.441Z,11.30
2023-02-01T05:24:43.144Z,13.70
2023-02-01T05:27:11.030Z,9.70
2023-02-01T05:29:38.738Z,11.90
2023-02-01T05:32:21.116Z,10.30
2023-02-01T05:34:49.878Z,10.10
2023-02-01T05:37:17.573Z,11.80
2023-02-01T05:39:45.343Z,10.20
2023-02-01T05:42:13.020Z,12.00
2023-02-01T05:44:40.743Z,11.90
2023-02-01T05:47:08.561Z,11.80
2023-02-01T05:49:36.256Z,13.30
2023-02-01T05:52:04.043Z,11.60
2023-02-01T05:54:31.726Z,8.70
2023-02-01T05:56:59.367Z,12.40
2023-02-01T05:59:27.049Z,10.70
2023-02-01T06:01:54.682Z,10.40
2023-02-01T06:04:22.404Z,12.70
2023-02-01T06:06:51.409Z,11.60
2023-02-01T06:09:19.182Z,11.80
2023-02-01T06:11:46.885Z,12.40
2023-02-01T06:14:14.621Z,9.10
2023-02-01T06:16:42.342Z,11.60
2023-02-01T06:19:10.007Z,13.40
2023-02-01T06:21:37.790Z,10.60
2023-02-01T06:24:05.681Z,11.30
2023-02-01T06:26:34.206Z,10.10
2023-02-01T06:29:01.922Z,12.10
2023-02-01T06:31:29.857Z,11.70
2023-02-01T06:33:58.416Z,10.60
2023-02-01T06:36:26.234Z,9.50
2023-02-01T06:38:54.084Z,11.80
2023-02-01T06:41:21.783Z,10.80
2023-02-01T06:43:50.108Z,12.70
2023-02-01T06:46:18.192Z,10.50
2023-02-01T06:48:47.111Z,11.90
2023-02-01T06:51:27.185Z,13.20
2023-02-01T06:53:55.020Z,12.40
2023-02-01T06:56:22.886Z,13.30
2023-02-01T06:58:50.938Z,11.60
2023-02-01T07:01:18.659Z,11.30
2023-02-01T07:03:51.929Z,10.20
2023-02-01T07:06:20.324Z,13.20
2023-02-01T07:08:48.044Z,11.30
2023-02-01T07:11:16.798Z,12.80
2023-02-01T07:13:44.897Z,15.30
2023-02-01T07:16:15.940Z,11.00
2023-02-01T07:18:44.414Z,11.00
2023-02-01T07:21:12.861Z,12.20
2023-02-01T07:23:40.740Z,10.10
2023-02-01T07:26:11.908Z,11.60
2023-02-01T07:28:40.056Z,12.00
2023-02-01T07:31:14.647Z,12.00
2023-02-01T07:33:42.941Z,13.10
2023-02-01T07:36:18.123Z,11.20
2023-02-01T07:38:48.040Z,11.20
2023-02-01T07:41:15.928Z,9.40
2023-02-01T07:43:44.097Z,13.10
2023-02-01T07:46:12.717Z,12.70
2023-02-01T07:48:40.521Z,11.90
2023-02-01T07:51:14.068Z,11.80
2023-02-01T07:53:42.930Z,11.70
2023-02-01T07:56:18.803Z,11.90
2023-02-01T07:58:54.410Z,11.30
2023-02-01T08:01:27.985Z,11.70
2023-02-01T08:04:00.004Z,14.40
2023-02-01T08:06:32.317Z,11.30
2023-02-01T08:09:00.204Z,12.30
2023-02-01T08:11:28.296Z,14.20
2023-02-01T08:13:56.359Z,11.80
2023-02-01T08:16:24.672Z,13.00
2023-02-01T08:18:53.560Z,10.60
2023-02-01T08:21:27.201Z,15.30
2023-02-01T08:23:54.912Z,13.60
2023-02-01T08:26:25.056Z,9.60
2023-02-01T08:28:59.021Z,14.70
2023-02-01T08:31:28.970Z,12.80
2023-02-01T08:33:59.248Z,13.70
2023-02-01T08:36:29.284Z,13.10
2023-02-01T08:38:57.555Z,12.70
2023-02-01T08:41:27.801Z,15.60
2023-02-01T08:43:57.084Z,13.30
2023-02-01T08:46:25.217Z,14.30
2023-02-01T08:48:53.068Z,13.90
2023-02-01T08:51:22.590Z,12.30
2023-02-01T08:53:50.838Z,12.90
2023-02-01T08:56:20.265Z,12.60
2023-02-01T08:58:48.174Z,11.20
2023-02-01T09:01:17.905Z,11.40
2023-02-01T09:03:46.504Z,12.30
2023-02-01T09:06:16.033Z,14.20
2023-02-01T09:08:44.236Z,11.20
2023-02-01T09:11:15.124Z,11.20
2023-02-01T09:13:43.476Z,14.30
2023-02-01T09:16:12.109Z,13.30
2023-02-01T09:18:50.409Z,12.00
2023-02-01T09:21:24.837Z,13.30
2023-02-01T09:23:52.766Z,14.00
2023-02-01T09:26:26.434Z,12.20
2023-02-01T09:28:59.341Z,13.30
2023-02-01T09:31:27.575Z,11.30
2023-02-01T09:33:55.555Z,15.00
2023-02-01T09:36:24.418Z,14.40
2023-02-01T09:38:53.395Z,14.00
2023-02-01T09:41:42.874Z,14.40
2023-02-01T09:44:44.612Z,15.30
2023-02-01T09:47:18.819Z,14.40
2023-02-01T09:50:02.839Z,14.70
2023-02-01T09:52:44.614Z,14.50
2023-02-01T09:55:20.006Z,15.90
2023-02-01T09:57:54.716Z,15.30
2023-02-01T10:00:29.450Z,23.20
2023-02-01T10:02:57.528Z,17.20
2023-02-01T10:05:47.116Z,23.60
2023-02-01T10:08:31.912Z,19.10
2023-02-01T10:11:13.900Z,19.10
2023-02-01T10:13:55.485Z,14.40
2023-02-01T10:16:51.138Z,15.20
2023-02-01T10:19:27.813Z,15.30
2023-02-01T10:22:04.153Z,14.90
2023-02-01T10:24:44.122Z,13.30
2023-02-01T10:27:19.175Z,15.60
2023-02-01T10:29:52.914Z,14.10
2023-02-01T10:32:32.808Z,14.40
2023-02-01T10:35:03.194Z,16.70
2023-02-01T10:37:33.274Z,15.40
2023-02-01T10:40:18.505Z,14.60
2023-02-01T10:42:47.705Z,12.90
2023-02-01T10:45:19.350Z,16.90
2023-02-01T10:47:49.467Z,14.80
2023-02-01T10:50:41.432Z,15.40
2023-02-01T10:53:32.441Z,13.70
2023-02-01T10:56:10.071Z,11.50
2023-02-01T10:58:45.490Z,12.70
2023-02-01T11:01:22.742Z,13.50
2023-02-01T11:03:58.928Z,14.40
2023-02-01T11:06:41.635Z,15.00
2023-02-01T11:09:09.305Z,15.50
2023-02-01T11:11:54.880Z,11.80
2023-02-01T11:14:25.370Z,12.60
2023-02-01T11:17:00.922Z,14.00
2023-02-01T11:19:29.532Z,15.20
2023-02-01T11:21:59.792Z,12.30
2023-02-01T11:24:30.682Z,12.30
2023-02-01T11:27:00.377Z,13.40
2023-02-01T11:29:31.376Z,12.70
2023-02-01T11:32:00.608Z,11.50
2023-02-01T11:34:41.426Z,13.90
2023-02-01T11:37:19.210Z,12.10
2023-02-01T11:39:58.979Z,13.10
2023-02-01T11:42:29.264Z,14.10
2023-02-01T11:45:19.691Z,12.30
2023-02-01T11:47:47.569Z,16.00
2023-02-01T11:50:18.914Z,14.90
2023-02-01T11:53:10.938Z,12.30
2023-02-01T11:55:58.282Z,12.60
2023-02-01T11:58:56.711Z,14.40
2023-02-01T12:01:33.460Z,13.60
2023-02-01T12:04:13.979Z,14.00
2023-02-01T12:07:03.338Z,8.00
2023-02-01T12:09:57.549Z,7.10
2023-02-01T12:12:31.901Z,7.40
2023-02-01T12:15:23.835Z,7.20
2023-02-01T12:18:19.915Z,7.70
2023-02-01T12:21:05.432Z,6.50
2023-02-01T12:24:03.045Z,6.70
2023-02-01T12:26:46.161Z,5.40
2023-02-01T12:29:23.449Z,7.90
2023-02-01T12:32:45.768Z,6.70
2023-02-01T12:35:32.183Z,6.90
2023-02-01T12:38:21.533Z,8.70
2023-02-01T12:41:08.617Z,6.60
2023-02-01T12:43:58.510Z,8.90
2023-02-01T12:46:34.124Z,7.40
2023-02-01T12:49:05.794Z,8.90
2023-02-01T12:51:39.172Z,8.00
2023-02-01T12:54:36.419Z,8.00
2023-02-01T12:57:08.956Z,8.20
2023-02-01T12:59:53.004Z,8.40
2023-02-01T13:02:28.830Z,9.10
2023-02-01T13:05:07.576Z,10.30
2023-02-01T13:07:42.660Z,11.10
2023-02-01T13:10:18.929Z,12.00
2023-02-01T13:13:01.331Z,11.80
2023-02-01T13:15:32.586Z,10.10
2023-02-01T13:18:04.017Z,13.00
2023-02-01T13:20:35.491Z,11.60
2023-02-01T13:23:14.003Z,11.70
2023-02-01T13:25:50.819Z,10.60
2023-02-01T13:28:42.159Z,11.80
2023-02-01T13:31:32.673Z,10.10
2023-02-01T13:34:24.383Z,9.60
2023-02-01T13:37:01.046Z,10.80
2023-02-01T13:39:46.832Z,10.50
2023-02-01T13:42:23.227Z,11.70
2023-02-01T13:44:55.843Z,10.70
2023-02-01T13:47:35.350Z,10.90
2023-02-01T13:50:28.085Z,8.60
2023-02-01T13:52:59.610Z,8.60
2023-02-01T13:55:47.104Z,25.80
2023-02-01T13:58:21.853Z,65.60
2023-02-01T14:00:52.323Z,34.30
2023-02-01T14:03:43.400Z,26.30
2023-02-01T14:06:17.184Z,12.70
2023-02-01T14:08:46.339Z,11.60
2023-02-01T14:11:37.152Z,13.10
2023-02-01T14:14:28.661Z,13.80
2023-02-01T14:16:56.334Z,13.60
2023-02-01T14:19:29.557Z,16.40
2023-02-01T14:22:02.098Z,18.90
2023-02-01T14:24:36.460Z,25.10
2023-02-01T14:27:19.089Z,24.10
2023-02-01T14:29:59.070Z,20.40
2023-02-01T14:32:32.929Z,19.40
2023-02-01T14:35:01.942Z,29.50
2023-02-01T14:37:37.615Z,18.90
2023-02-01T14:40:07.422Z,13.40
2023-02-01T14:42:49.573Z,14.80
2023-02-01T14:45:21.098Z,13.60
2023-02-01T14:48:16.220Z,16.30
2023-02-01T14:50:50.727Z,12.90
2023-02-01T14:53:22.956Z,11.40
2023-02-01T14:55:59.716Z,15.20
2023-02-01T14:58:43.782Z,12.20
2023-02-01T15:01:32.596Z,12.90
2023-02-01T15:04:11.435Z,13.00
2023-02-01T15:06:44.350Z,14.00
2023-02-01T15:09:26.902Z,15.50
2023-02-01T15:12:16.680Z,12.30
2023-02-01T15:14:50.286Z,12.20
2023-02-01T15:17:25.271Z,12.50
2023-02-01T15:19:57.886Z,10.80
2023-02-01T15:22:26.665Z,11.00
2023-02-01T15:24:56.693Z,15.00
2023-02-01T15:27:25.972Z,12.50
2023-02-01T15:29:53.954Z,10.80
2023-02-01T15:32:35.342Z,11.40
2023-02-01T15:35:03.723Z,10.00
2023-02-01T15:37:32.178Z,15.20
2023-02-01T15:40:12.046Z,11.60
2023-02-01T15:42:57.403Z,13.40
2023-02-01T15:45:30.738Z,10.20
2023-02-01T15:47:59.411Z,12.60
2023-02-01T15:50:28.683Z,12.30
2023-02-01T15:52:56.668Z,10.60
2023-02-01T15:55:34.211Z,10.80
2023-02-01T15:58:07.294Z,15.10
2023-02-01T16:00:46.477Z,15.80
2023-02-01T16:03:36.581Z,10.30
2023-02-01T16:06:07.324Z,15.10
2023-02-01T16:08:37.676Z,9.40
2023-02-01T16:11:08.090Z,16.80
2023-02-01T16:13:36.425Z,8.40
2023-02-01T16:16:08.866Z,13.40
2023-02-01T16:18:36.815Z,9.80
2023-02-01T16:21:04.696Z,9.40
2023-02-01T16:23:32.595Z,11.40
2023-02-01T16:26:00.443Z,8.40
2023-02-01T16:28:28.128Z,8.40
2023-02-01T16:30:55.850Z,9.70
2023-02-01T16:33:24.277Z,8.80
2023-02-01T16:35:52.797Z,8.80
2023-02-01T16:38:23.154Z,9.50
2023-02-01T16:40:51.165Z,9.60
2023-02-01T16:43:21.306Z,9.40
2023-02-01T16:45:51.111Z,9.10
2023-02-01T16:48:27.911Z,8.70
2023-02-01T16:50:58.065Z,10.20
2023-02-01T16:53:28.595Z,8.00
2023-02-01T16:55:58.306Z,8.20
2023-02-01T16:58:27.472Z,10.40
2023-02-01T17:00:55.671Z,9.40
2023-02-01T17:03:23.508Z,9.10
2023-02-01T17:05:53.690Z,9.60
2023-02-01T17:08:42.781Z,9.20
2023-02-01T17:11:12.845Z,11.00
2023-02-01T17:13:42.139Z,9.20
2023-02-01T17:16:19.166Z,16.60
2023-02-01T17:19:08.171Z,13.70
2023-02-01T17:21:56.573Z,18.00
2023-02-01T17:24:35.890Z,12.20
2023-02-01T17:27:10.308Z,21.20
2023-02-01T17:29:38.297Z,21.40
2023-02-01T17:32:06.733Z,18.90
2023-02-01T17:34:34.601Z,15.70
2023-02-01T17:37:02.307Z,22.40
2023-02-01T17:39:48.791Z,19.20
2023-02-01T17:42:16.470Z,23.40
2023-02-01T17:44:44.168Z,22.90
2023-02-01T17:47:11.795Z,14.80
2023-02-01T17:49:39.628Z,26.00
2023-02-01T17:52:12.632Z,19.70
2023-02-01T17:54:40.298Z,19.00
2023-02-01T17:57:14.539Z,18.60
2023-02-01T17:59:42.994Z,18.50
2023-02-01T18:02:21.103Z,19.30
2023-02-01T18:04:49.854Z,23.40
2023-02-01T18:07:17.609Z,17.20
2023-02-01T18:09:45.340Z,19.60
2023-02-01T18:12:21.174Z,23.20
2023-02-01T18:14:49.119Z,14.70
2023-02-01T18:17:16.882Z,19.10
2023-02-01T18:19:44.569Z,30.80
2023-02-01T18:22:17.667Z,32.50
2023-02-01T18:24:45.541Z,17.50
2023-02-01T18:27:13.392Z,22.50
2023-02-01T18:29:41.046Z,19.00
2023-02-01T18:32:10.072Z,18.40
2023-02-01T18:34:37.933Z,16.00
2023-02-01T18:37:05.658Z,14.60
2023-02-01T18:39:33.366Z,16.70
2023-02-01T18:42:01.180Z,15.50
2023-02-01T18:44:29.007Z,17.00
2023-02-01T18:46:57.307Z,13.20
2023-02-01T18:49:25.061Z,15.00
2023-02-01T18:51:53.053Z,12.70
2023-02-01T18:54:20.768Z,11.30
2023-02-01T18:56:48.509Z,9.20
2023-02-01T18:59:17.483Z,11.00
2023-02-01T19:01:45.342Z,11.50
2023-02-01T19:04:19.551Z,10.30
2023-02-01T19:06:53.975Z,10.70
2023-02-01T19:09:21.768Z,14.30
2023-02-01T19:11:49.556Z,12.00
2023-02-01T19:14:17.239Z,11.00
2023-02-01T19:16:44.930Z,14.00
2023-02-01T19:19:12.663Z,12.60
2023-02-01T19:21:40.345Z,13.60
2023-02-01T19:24:08.060Z,12.60
2023-02-01T19:26:35.732Z,12.20
2023-02-01T19:29:04.421Z,15.20
2023-02-01T19:31:32.255Z,15.00
2023-02-01T19:34:00.269Z,13.80
2023-02-01T19:36:28.469Z,14.40
2023-02-01T19:38:56.163Z,14.80
2023-02-01T19:41:23.836Z,15.10
2023-02-01T19:43:51.516Z,15.60
2023-02-01T19:46:19.296Z,16.80
2023-02-01T19:48:47.771Z,16.60
2023-02-01T19:51:15.622Z,18.50
2023-02-01T19:53:44.361Z,18.10
2023-02-01T19:56:12.175Z,18.20
2023-02-01T19:58:39.876Z,19.10
2023-02-01T20:01:06.830Z,21.60
2023-02-01T20:03:34.555Z,19.80
2023-02-01T20:06:02.587Z,19.00
2023-02-01T20:08:30.332Z,19.00
2023-02-01T20:10:58.016Z,21.00
2023-02-01T20:13:25.831Z,21.30
2023-02-01T20:15:57.863Z,21.60
2023-02-01T20:18:26.422Z,18.70
2023-02-01T20:20:58.374Z,16.70
2023-02-01T20:23:27.715Z,16.60
2023-02-01T20:26:02.737Z,19.60
2023-02-01T20:28:31.167Z,16.40
2023-02-01T20:30:59.526Z,17.20
2023-02-01T20:33:28.878Z,16.80
2023-02-01T20:35:56.660Z,15.20
2023-02-01T20:38:24.306Z,15.00
2023-02-01T20:40:52.635Z,18.50
2023-02-01T20:43:20.409Z,16.80
2023-02-01T20:45:49.551Z,20.80
2023-02-01T20:48:17.319Z,23.30
2023-02-01T20:50:45.113Z,18.40
2023-02-01T20:53:25.329Z,20.30
2023-02-01T20:55:55.923Z,22.00
2023-02-01T20:58:24.187Z,21.50
2023-02-01T21:00:52.047Z,20.50
2023-02-01T21:03:20.140Z,22.50
2023-02-01T21:05:50.156Z,22.90
2023-02-01T21:08:18.624Z,14.00
2023-02-01T21:11:00.924Z,18.80
2023-02-01T21:13:31.187Z,16.10
2023-02-01T21:15:59.094Z,15.40
2023-02-01T21:18:26.899Z,16.40
2023-02-01T21:20:54.857Z,15.50
2023-02-01T21:23:22.601Z,15.00
2023-02-01T21:25:50.454Z,20.20
2023-02-01T21:28:18.219Z,17.10
2023-02-01T21:30:45.890Z,16.20
2023-02-01T21:33:13.703Z,14.10
2023-02-01T21:35:42.312Z,12.40
2023-02-01T21:38:10.198Z,14.20
2023-02-01T21:40:37.922Z,12.80
2023-02-01T21:43:05.564Z,11.90
2023-02-01T21:45:33.244Z,12.80
2023-02-01T21:48:02.193Z,10.70
2023-02-01T21:50:30.061Z,10.80
2023-02-01T21:52:57.711Z,11.10
2023-02-01T21:55:25.703Z,10.40
2023-02-01T21:57:53.694Z,12.20
2023-02-01T22:00:21.609Z,9.90
2023-02-01T22:02:49.247Z,9.50
2023-02-01T22:05:17.478Z,12.30
2023-02-01T22:07:45.103Z,10.10
2023-02-01T22:10:13.242Z,12.20
2023-02-01T22:12:40.889Z,9.90
2023-02-01T22:15:08.853Z,11.60
2023-02-01T22:17:36.662Z,15.50
2023-02-01T22:20:05.289Z,11.70
2023-02-01T22:22:33.022Z,14.50
2023-02-01T22:25:00.706Z,15.50
2023-02-01T22:28:30.183Z,14.00
2023-02-01T22:30:16.421Z,14.00
2023-02-01T22:32:44.081Z,12.50
2023-02-01T22:35:11.799Z,13.00
2023-02-01T22:37:40.098Z,15.30
2023-02-01T22:40:08.952Z,14.70
2023-02-01T22:42:36.652Z,15.80
2023-02-01T22:45:04.736Z,16.10
2023-02-01T22:47:32.450Z,13.00
2023-02-01T22:50:00.132Z,14.90
2023-02-01T22:52:27.779Z,13.20
2023-02-01T22:54:55.480Z,13.90
2023-02-01T22:57:23.223Z,13.60
2023-02-01T22:59:50.915Z,12.90
2023-02-01T23:02:18.566Z,12.10
2023-02-01T23:04:46.382Z,12.90
2023-02-01T23:07:14.573Z,12.80
2023-02-01T23:09:42.225Z,12.50
2023-02-01T23:12:09.916Z,12.10
2023-02-01T23:14:57.616Z,12.40
2023-02-01T23:17:25.299Z,13.50
2023-02-01T23:19:52.967Z,12.90
2023-02-01T23:22:20.648Z,14.30
2023-02-01T23:24:49.132Z,12.90
2023-02-01T23:27:16.836Z,12.00
2023-02-01T23:29:44.503Z,11.00
2023-02-01T23:32:12.148Z,11.40
2023-02-01T23:34:40.616Z,12.90
2023-02-01T23:37:08.260Z,11.90
2023-02-01T23:39:35.951Z,12.90
2023-02-01T23:42:04.856Z,11.40
2023-02-01T23:44:32.506Z,11.00
2023-02-01T23:47:01.411Z,12.50
2023-02-01T23:49:29.142Z,11.70
2023-02-01T23:51:56.851Z,13.10
2023-02-01T23:54:24.607Z,12.30
2023-02-01T23:56:52.381Z,12.20
2023-02-01T23:59:22.053Z,12.50
